sensor_id;sensor_type;location;lat;lon;timestamp;pressure;altitude;pressure_sealevel;temperature;humidity
38852;BME280;24605;50.092;9.182;2024-02-26T00:00:06;153516.53;;;5.77;95.50
38852;BME280;24605;50.092;9.182;2024-02-26T00:02:36;153512.66;;;5.76;95.91
38852;BME280;24605;50.092;9.182;2024-02-26T00:05:04;153486.66;;;5.65;95.87
38852;BME280;24605;50.092;9.182;2024-02-26T00:07:31;153469.75;;;5.59;96.48
38852;BME280;24605;50.092;9.182;2024-02-26T00:09:57;153495.75;;;5.69;96.82
38852;BME280;24605;50.092;9.182;2024-02-26T00:12:24;153498.34;;;5.70;96.30
38852;BME280;24605;50.092;9.182;2024-02-26T00:14:50;153477.56;;;5.62;96.60
38852;BME280;24605;50.092;9.182;2024-02-26T00:17:18;153506.13;;;5.73;96.16
38852;BME280;24605;50.092;9.182;2024-02-26T00:19:46;153510.03;;;5.75;96.81
38852;BME280;24605;50.092;9.182;2024-02-26T00:22:13;153510.03;;;5.75;96.13
38852;BME280;24605;50.092;9.182;2024-02-26T00:24:40;153523.00;;;5.80;95.93
38852;BME280;24605;50.092;9.182;2024-02-26T00:27:06;153493.16;;;5.68;96.62
38852;BME280;24605;50.092;9.182;2024-02-26T00:29:33;153445.09;;;5.49;96.57
38852;BME280;24605;50.092;9.182;2024-02-26T00:31:59;153507.44;;;5.74;96.39
38852;BME280;24605;50.092;9.182;2024-02-26T00:34:25;153487.94;;;5.66;97.46
38852;BME280;24605;50.092;9.182;2024-02-26T00:36:53;153506.13;;;5.73;96.48
38852;BME280;24605;50.092;9.182;2024-02-26T00:39:20;153461.97;;;5.56;96.42
38852;BME280;24605;50.092;9.182;2024-02-26T00:41:46;153477.56;;;5.62;97.56
38852;BME280;24605;50.092;9.182;2024-02-26T00:44:13;153490.53;;;5.67;96.43
38852;BME280;24605;50.092;9.182;2024-02-26T00:46:39;153512.66;;;5.76;96.68
38852;BME280;24605;50.092;9.182;2024-02-26T00:49:05;153456.78;;;5.54;97.39
38852;BME280;24605;50.092;9.182;2024-02-26T00:51:32;153472.38;;;5.60;97.84
38852;BME280;24605;50.092;9.182;2024-02-26T00:54:00;153433.41;;;5.44;97.58
38852;BME280;24605;50.092;9.182;2024-02-26T00:56:26;153477.56;;;5.62;98.00
38852;BME280;24605;50.092;9.182;2024-02-26T00:58:53;153468.50;;;5.58;97.53
38852;BME280;24605;50.092;9.182;2024-02-26T01:01:19;153443.78;;;5.48;98.25
38852;BME280;24605;50.092;9.182;2024-02-26T01:03:46;153423.00;;;5.40;97.64
38852;BME280;24605;50.092;9.182;2024-02-26T01:06:12;153464.56;;;5.57;97.56
38852;BME280;24605;50.092;9.182;2024-02-26T01:08:39;153428.22;;;5.42;97.48
38852;BME280;24605;50.092;9.182;2024-02-26T01:11:07;153458.06;;;5.54;97.08
38852;BME280;24605;50.092;9.182;2024-02-26T01:13:33;153439.91;;;5.47;96.97
38852;BME280;24605;50.092;9.182;2024-02-26T01:16:00;153449.00;;;5.51;97.15
38852;BME280;24605;50.092;9.182;2024-02-26T01:18:26;153420.41;;;5.39;97.49
38852;BME280;24605;50.092;9.182;2024-02-26T01:20:53;153455.47;;;5.53;97.00
38852;BME280;24605;50.092;9.182;2024-02-26T01:23:20;153437.31;;;5.46;97.94
38852;BME280;24605;50.092;9.182;2024-02-26T01:25:46;153429.50;;;5.43;97.27
38852;BME280;24605;50.092;9.182;2024-02-26T01:28:14;153447.72;;;5.50;97.21
38852;BME280;24605;50.092;9.182;2024-02-26T01:30:41;153443.78;;;5.48;96.51
38852;BME280;24605;50.092;9.182;2024-02-26T01:33:07;153429.50;;;5.43;99.42
38852;BME280;24605;50.092;9.182;2024-02-26T01:35:34;153461.97;;;5.56;98.59
38852;BME280;24605;50.092;9.182;2024-02-26T01:38:01;153459.41;;;5.55;98.89
38852;BME280;24605;50.092;9.182;2024-02-26T01:40:27;153460.69;;;5.55;99.18
38852;BME280;24605;50.092;9.182;2024-02-26T01:42:54;153458.06;;;5.54;99.21
38852;BME280;24605;50.092;9.182;2024-02-26T01:45:22;153469.75;;;5.59;98.14
38852;BME280;24605;50.092;9.182;2024-02-26T01:47:50;153473.66;;;5.60;97.82
38852;BME280;24605;50.092;9.182;2024-02-26T01:50:17;153498.34;;;5.70;97.49
38852;BME280;24605;50.092;9.182;2024-02-26T01:52:44;153434.69;;;5.45;98.12
38852;BME280;24605;50.092;9.182;2024-02-26T01:55:12;153463.28;;;5.56;97.81
38852;BME280;24605;50.092;9.182;2024-02-26T01:57:39;153455.47;;;5.53;98.02
38852;BME280;24605;50.092;9.182;2024-02-26T02:00:07;153446.38;;;5.49;97.39
38852;BME280;24605;50.092;9.182;2024-02-26T02:02:35;153394.47;;;5.29;98.90
38852;BME280;24605;50.092;9.182;2024-02-26T02:05:05;153436.03;;;5.45;98.03
38852;BME280;24605;50.092;9.182;2024-02-26T02:07:31;153424.34;;;5.41;97.49
38852;BME280;24605;50.092;9.182;2024-02-26T02:09:58;153402.25;;;5.32;96.95
38852;BME280;24605;50.092;9.182;2024-02-26T02:12:25;153417.81;;;5.38;97.84
38852;BME280;24605;50.092;9.182;2024-02-26T02:14:52;153454.19;;;5.53;97.10
38852;BME280;24605;50.092;9.182;2024-02-26T02:17:19;153446.38;;;5.49;95.37
38852;BME280;24605;50.092;9.182;2024-02-26T02:19:47;153442.50;;;5.48;95.47
38852;BME280;24605;50.092;9.182;2024-02-26T02:22:14;153503.56;;;5.72;93.58
38852;BME280;24605;50.092;9.182;2024-02-26T02:24:42;153441.19;;;5.47;94.32
38852;BME280;24605;50.092;9.182;2024-02-26T02:27:11;153523.00;;;5.80;93.44
38852;BME280;24605;50.092;9.182;2024-02-26T02:29:38;153490.53;;;5.67;93.31
38852;BME280;24605;50.092;9.182;2024-02-26T02:32:05;153463.28;;;5.56;93.61
38852;BME280;24605;50.092;9.182;2024-02-26T02:34:32;153465.88;;;5.57;94.89
38852;BME280;24605;50.092;9.182;2024-02-26T02:36:59;153477.56;;;5.62;94.73
38852;BME280;24605;50.092;9.182;2024-02-26T02:39:27;153464.56;;;5.57;92.39
38852;BME280;24605;50.092;9.182;2024-02-26T02:41:53;153487.94;;;5.66;92.76
38852;BME280;24605;50.092;9.182;2024-02-26T02:44:20;153515.25;;;5.77;91.64
38852;BME280;24605;50.092;9.182;2024-02-26T02:46:46;153545.13;;;5.89;90.36
38852;BME280;24605;50.092;9.182;2024-02-26T02:49:13;153525.63;;;5.81;90.84
38852;BME280;24605;50.092;9.182;2024-02-26T02:51:41;153537.31;;;5.86;90.97
38852;BME280;24605;50.092;9.182;2024-02-26T02:54:07;153524.34;;;5.80;90.44
38852;BME280;24605;50.092;9.182;2024-02-26T02:56:35;153430.81;;;5.43;93.49
38852;BME280;24605;50.092;9.182;2024-02-26T02:59:02;153459.41;;;5.55;92.99
38852;BME280;24605;50.092;9.182;2024-02-26T03:01:29;153484.06;;;5.64;92.43
38852;BME280;24605;50.092;9.182;2024-02-26T03:03:55;153400.97;;;5.31;93.84
38852;BME280;24605;50.092;9.182;2024-02-26T03:06:22;153454.19;;;5.53;94.28
38852;BME280;24605;50.092;9.182;2024-02-26T03:08:50;153456.78;;;5.54;92.96
38852;BME280;24605;50.092;9.182;2024-02-26T03:11:16;153482.78;;;5.64;91.57
38852;BME280;24605;50.092;9.182;2024-02-26T03:13:44;153472.38;;;5.60;91.60
38852;BME280;24605;50.092;9.182;2024-02-26T03:16:10;153484.06;;;5.64;91.80
38852;BME280;24605;50.092;9.182;2024-02-26T03:18:38;153504.84;;;5.73;90.88
38852;BME280;24605;50.092;9.182;2024-02-26T03:21:04;153461.97;;;5.56;90.62
38852;BME280;24605;50.092;9.182;2024-02-26T03:23:31;153472.38;;;5.60;91.89
38852;BME280;24605;50.092;9.182;2024-02-26T03:26:01;153397.03;;;5.30;93.32
38852;BME280;24605;50.092;9.182;2024-02-26T03:28:28;153455.47;;;5.53;92.12
38852;BME280;24605;50.092;9.182;2024-02-26T03:30:56;153467.16;;;5.58;91.85
38852;BME280;24605;50.092;9.182;2024-02-26T03:33:22;153446.38;;;5.49;91.53
38852;BME280;24605;50.092;9.182;2024-02-26T03:35:49;153454.19;;;5.53;90.31
38852;BME280;24605;50.092;9.182;2024-02-26T03:38:15;153481.47;;;5.63;90.82
38852;BME280;24605;50.092;9.182;2024-02-26T03:40:42;153489.25;;;5.67;91.41
38852;BME280;24605;50.092;9.182;2024-02-26T03:43:09;153451.59;;;5.52;92.29
38852;BME280;24605;50.092;9.182;2024-02-26T03:45:36;153438.63;;;5.46;92.39
38852;BME280;24605;50.092;9.182;2024-02-26T03:48:04;153386.66;;;5.26;93.64
38852;BME280;24605;50.092;9.182;2024-02-26T03:50:31;153354.22;;;5.13;95.38
38852;BME280;24605;50.092;9.182;2024-02-26T03:52:58;153337.31;;;5.06;95.75
38852;BME280;24605;50.092;9.182;2024-02-26T03:55:25;153319.16;;;4.99;98.38
38852;BME280;24605;50.092;9.182;2024-02-26T03:57:51;153307.47;;;4.94;98.84
38852;BME280;24605;50.092;9.182;2024-02-26T04:00:19;153298.38;;;4.91;99.26
38852;BME280;24605;50.092;9.182;2024-02-26T04:02:46;153358.09;;;5.14;96.68
38852;BME280;24605;50.092;9.182;2024-02-26T04:05:14;153352.88;;;5.12;95.24
38852;BME280;24605;50.092;9.182;2024-02-26T04:07:40;153325.63;;;5.01;94.21
38852;BME280;24605;50.092;9.182;2024-02-26T04:10:10;153306.16;;;4.94;94.90
38852;BME280;24605;50.092;9.182;2024-02-26T04:12:38;153337.31;;;5.06;93.74
38852;BME280;24605;50.092;9.182;2024-02-26T04:15:06;153372.38;;;5.20;94.58
38852;BME280;24605;50.092;9.182;2024-02-26T04:17:33;153403.56;;;5.32;94.64
38852;BME280;24605;50.092;9.182;2024-02-26T04:19:59;153368.50;;;5.18;93.43
38852;BME280;24605;50.092;9.182;2024-02-26T04:22:27;153380.19;;;5.23;92.85
38852;BME280;24605;50.092;9.182;2024-02-26T04:24:54;153342.53;;;5.08;93.06
38852;BME280;24605;50.092;9.182;2024-02-26T04:27:20;153324.38;;;5.01;93.17
38852;BME280;24605;50.092;9.182;2024-02-26T04:29:47;153343.81;;;5.09;93.48
38852;BME280;24605;50.092;9.182;2024-02-26T04:32:13;153364.56;;;5.17;93.39
38852;BME280;24605;50.092;9.182;2024-02-26T04:34:39;153350.28;;;5.11;93.70
38852;BME280;24605;50.092;9.182;2024-02-26T04:37:07;153369.78;;;5.19;93.65
38852;BME280;24605;50.092;9.182;2024-02-26T04:39:35;153373.66;;;5.21;93.61
38852;BME280;24605;50.092;9.182;2024-02-26T04:42:04;153306.16;;;4.94;94.73
38852;BME280;24605;50.092;9.182;2024-02-26T04:44:34;153277.63;;;4.82;95.67
38852;BME280;24605;50.092;9.182;2024-02-26T04:47:00;153336.03;;;5.06;94.85
38852;BME280;24605;50.092;9.182;2024-02-26T04:49:27;153332.13;;;5.04;95.42
38852;BME280;24605;50.092;9.182;2024-02-26T04:51:54;153361.97;;;5.16;95.05
38852;BME280;24605;50.092;9.182;2024-02-26T04:54:20;153334.72;;;5.05;95.39
38852;BME280;24605;50.092;9.182;2024-02-26T04:56:48;153349.00;;;5.11;96.20
38852;BME280;24605;50.092;9.182;2024-02-26T04:59:15;153308.75;;;4.95;95.62
38852;BME280;24605;50.092;9.182;2024-02-26T05:01:41;153341.19;;;5.08;95.29
38852;BME280;24605;50.092;9.182;2024-02-26T05:04:08;153324.38;;;5.01;95.02
38852;BME280;24605;50.092;9.182;2024-02-26T05:06:36;153329.53;;;5.03;94.81
38852;BME280;24605;50.092;9.182;2024-02-26T05:09:03;153303.59;;;4.93;95.93
38852;BME280;24605;50.092;9.182;2024-02-26T05:11:29;153280.22;;;4.83;96.56
38852;BME280;24605;50.092;9.182;2024-02-26T05:13:57;153285.38;;;4.85;97.34
38852;BME280;24605;50.092;9.182;2024-02-26T05:16:25;153263.34;;;4.77;98.48
38852;BME280;24605;50.092;9.182;2024-02-26T05:18:52;153297.06;;;4.90;97.18
38852;BME280;24605;50.092;9.182;2024-02-26T05:21:18;153303.59;;;4.93;98.09
38852;BME280;24605;50.092;9.182;2024-02-26T05:23:45;153312.69;;;4.96;98.00
38852;BME280;24605;50.092;9.182;2024-02-26T05:26:18;153238.69;;;4.67;98.16
38852;BME280;24605;50.092;9.182;2024-02-26T05:28:45;153236.09;;;4.66;100.00
38852;BME280;24605;50.092;9.182;2024-02-26T05:31:14;153237.38;;;4.66;99.37
38852;BME280;24605;50.092;9.182;2024-02-26T05:33:40;153299.66;;;4.91;98.26
38852;BME280;24605;50.092;9.182;2024-02-26T05:36:07;153262.00;;;4.76;98.91
38852;BME280;24605;50.092;9.182;2024-02-26T05:38:34;153207.53;;;4.54;100.00
38852;BME280;24605;50.092;9.182;2024-02-26T05:41:04;153220.50;;;4.60;99.73
38852;BME280;24605;50.092;9.182;2024-02-26T05:43:31;153250.38;;;4.72;100.00
38852;BME280;24605;50.092;9.182;2024-02-26T05:46:08;153132.25;;;4.24;100.00
38852;BME280;24605;50.092;9.182;2024-02-26T05:48:44;153229.56;;;4.63;100.00
38852;BME280;24605;50.092;9.182;2024-02-26T05:51:10;153182.91;;;4.45;100.00
38852;BME280;24605;50.092;9.182;2024-02-26T05:53:37;153308.75;;;4.95;100.00
38852;BME280;24605;50.092;9.182;2024-02-26T05:56:04;153247.78;;;4.70;100.00
38852;BME280;24605;50.092;9.182;2024-02-26T05:58:30;153282.84;;;4.84;100.00
38852;BME280;24605;50.092;9.182;2024-02-26T06:00:57;153301.00;;;4.92;100.00
38852;BME280;24605;50.092;9.182;2024-02-26T06:03:23;153225.69;;;4.62;100.00
38852;BME280;24605;50.092;9.182;2024-02-26T06:05:51;153199.72;;;4.51;99.92
38852;BME280;24605;50.092;9.182;2024-02-26T06:08:18;153264.63;;;4.77;100.00
38852;BME280;24605;50.092;9.182;2024-02-26T06:10:44;153227.03;;;4.62;100.00
38852;BME280;24605;50.092;9.182;2024-02-26T06:13:11;153295.78;;;4.90;100.00
38852;BME280;24605;50.092;9.182;2024-02-26T06:15:37;153324.38;;;5.01;100.00
38852;BME280;24605;50.092;9.182;2024-02-26T06:18:04;153307.47;;;4.94;100.00
38852;BME280;24605;50.092;9.182;2024-02-26T06:20:31;153308.75;;;4.95;100.00
38852;BME280;24605;50.092;9.182;2024-02-26T06:22:59;153295.78;;;4.90;100.00
38852;BME280;24605;50.092;9.182;2024-02-26T06:25:25;153290.59;;;4.88;100.00
38852;BME280;24605;50.092;9.182;2024-02-26T06:27:52;153285.38;;;4.85;100.00
38852;BME280;24605;50.092;9.182;2024-02-26T06:30:18;153316.56;;;4.98;100.00
38852;BME280;24605;50.092;9.182;2024-02-26T06:32:45;153285.38;;;4.85;100.00
38852;BME280;24605;50.092;9.182;2024-02-26T06:35:11;153326.97;;;5.02;100.00
38852;BME280;24605;50.092;9.182;2024-02-26T06:37:38;153278.91;;;4.83;100.00
38852;BME280;24605;50.092;9.182;2024-02-26T06:40:07;153280.22;;;4.83;100.00
38852;BME280;24605;50.092;9.182;2024-02-26T06:42:34;153306.16;;;4.94;100.00
38852;BME280;24605;50.092;9.182;2024-02-26T06:45:00;153278.91;;;4.83;100.00
38852;BME280;24605;50.092;9.182;2024-02-26T06:47:29;153273.69;;;4.81;100.00
38852;BME280;24605;50.092;9.182;2024-02-26T06:49:55;153329.53;;;5.03;100.00
38852;BME280;24605;50.092;9.182;2024-02-26T06:52:23;153256.88;;;4.74;100.00
38852;BME280;24605;50.092;9.182;2024-02-26T06:54:50;153308.75;;;4.95;100.00
38852;BME280;24605;50.092;9.182;2024-02-26T06:57:19;153281.50;;;4.84;100.00
38852;BME280;24605;50.092;9.182;2024-02-26T06:59:45;153311.34;;;4.96;100.00
38852;BME280;24605;50.092;9.182;2024-02-26T07:02:12;153229.56;;;4.63;100.00
38852;BME280;24605;50.092;9.182;2024-02-26T07:04:39;153310.06;;;4.95;100.00
38852;BME280;24605;50.092;9.182;2024-02-26T07:07:05;153330.84;;;5.04;100.00
38852;BME280;24605;50.092;9.182;2024-02-26T07:09:32;153346.41;;;5.10;100.00
38852;BME280;24605;50.092;9.182;2024-02-26T07:11:59;153252.94;;;4.73;100.00
38852;BME280;24605;50.092;9.182;2024-02-26T07:14:26;153337.31;;;5.06;100.00
38852;BME280;24605;50.092;9.182;2024-02-26T07:16:53;153249.06;;;4.71;100.00
38852;BME280;24605;50.092;9.182;2024-02-26T07:19:19;153262.00;;;4.76;100.00
38852;BME280;24605;50.092;9.182;2024-02-26T07:21:46;153186.78;;;4.46;100.00
38852;BME280;24605;50.092;9.182;2024-02-26T07:24:12;153271.16;;;4.80;100.00
38852;BME280;24605;50.092;9.182;2024-02-26T07:26:39;153316.56;;;4.98;100.00
38852;BME280;24605;50.092;9.182;2024-02-26T07:29:06;153319.16;;;4.99;100.00
38852;BME280;24605;50.092;9.182;2024-02-26T07:31:34;153345.13;;;5.09;100.00
38852;BME280;24605;50.092;9.182;2024-02-26T07:34:00;153361.97;;;5.16;100.00
38852;BME280;24605;50.092;9.182;2024-02-26T07:36:26;153376.25;;;5.22;100.00
38852;BME280;24605;50.092;9.182;2024-02-26T07:38:53;153363.28;;;5.16;100.00
38852;BME280;24605;50.092;9.182;2024-02-26T07:41:20;153423.00;;;5.40;100.00
38852;BME280;24605;50.092;9.182;2024-02-26T07:43:46;153436.03;;;5.45;100.00
38852;BME280;24605;50.092;9.182;2024-02-26T07:46:13;153434.69;;;5.45;100.00
38852;BME280;24605;50.092;9.182;2024-02-26T07:48:42;153404.84;;;5.33;100.00
38852;BME280;24605;50.092;9.182;2024-02-26T07:51:08;153403.56;;;5.32;100.00
38852;BME280;24605;50.092;9.182;2024-02-26T07:53:35;153395.75;;;5.29;100.00
38852;BME280;24605;50.092;9.182;2024-02-26T07:56:01;153365.91;;;5.17;100.00
38852;BME280;24605;50.092;9.182;2024-02-26T07:58:28;153336.03;;;5.06;100.00
38852;BME280;24605;50.092;9.182;2024-02-26T08:00:55;153376.25;;;5.22;100.00
38852;BME280;24605;50.092;9.182;2024-02-26T08:03:21;153334.72;;;5.05;100.00
38852;BME280;24605;50.092;9.182;2024-02-26T08:05:49;153404.84;;;5.33;100.00
38852;BME280;24605;50.092;9.182;2024-02-26T08:08:15;153355.50;;;5.13;100.00
38852;BME280;24605;50.092;9.182;2024-02-26T08:10:41;153376.25;;;5.22;100.00
38852;BME280;24605;50.092;9.182;2024-02-26T08:13:08;153341.19;;;5.08;100.00
38852;BME280;24605;50.092;9.182;2024-02-26T08:15:35;153384.06;;;5.25;100.00
38852;BME280;24605;50.092;9.182;2024-02-26T08:18:03;153384.06;;;5.25;100.00
38852;BME280;24605;50.092;9.182;2024-02-26T08:20:29;153399.63;;;5.31;100.00
38852;BME280;24605;50.092;9.182;2024-02-26T08:22:57;153459.41;;;5.55;100.00
38852;BME280;24605;50.092;9.182;2024-02-26T08:25:24;153469.75;;;5.59;100.00
38852;BME280;24605;50.092;9.182;2024-02-26T08:27:50;153497.03;;;5.70;100.00
38852;BME280;24605;50.092;9.182;2024-02-26T08:30:17;153506.13;;;5.73;100.00
38852;BME280;24605;50.092;9.182;2024-02-26T08:32:44;153499.63;;;5.71;100.00
38852;BME280;24605;50.092;9.182;2024-02-26T08:35:11;153561.97;;;5.95;100.00
38852;BME280;24605;50.092;9.182;2024-02-26T08:37:37;153512.66;;;5.76;100.00
38852;BME280;24605;50.092;9.182;2024-02-26T08:40:06;153538.59;;;5.86;100.00
38852;BME280;24605;50.092;9.182;2024-02-26T08:42:33;153589.34;;;6.06;100.00
38852;BME280;24605;50.092;9.182;2024-02-26T08:45:00;153559.41;;;5.94;100.00
38852;BME280;24605;50.092;9.182;2024-02-26T08:47:26;153532.09;;;5.84;100.00
38852;BME280;24605;50.092;9.182;2024-02-26T08:49:53;153558.09;;;5.94;100.00
38852;BME280;24605;50.092;9.182;2024-02-26T08:52:20;153556.81;;;5.93;100.00
38852;BME280;24605;50.092;9.182;2024-02-26T08:54:46;153529.50;;;5.83;100.00
38852;BME280;24605;50.092;9.182;2024-02-26T08:57:14;153569.78;;;5.99;100.00
38852;BME280;24605;50.092;9.182;2024-02-26T08:59:41;153554.22;;;5.92;100.00
38852;BME280;24605;50.092;9.182;2024-02-26T09:02:07;153524.34;;;5.80;100.00
38852;BME280;24605;50.092;9.182;2024-02-26T09:04:34;153521.72;;;5.79;100.00
38852;BME280;24605;50.092;9.182;2024-02-26T09:07:01;153539.91;;;5.87;100.00
38852;BME280;24605;50.092;9.182;2024-02-26T09:09:27;153554.22;;;5.92;100.00
38852;BME280;24605;50.092;9.182;2024-02-26T09:11:54;153569.78;;;5.99;100.00
38852;BME280;24605;50.092;9.182;2024-02-26T09:14:22;153617.88;;;6.18;100.00
38852;BME280;24605;50.092;9.182;2024-02-26T09:16:48;153601.03;;;6.11;100.00
38852;BME280;24605;50.092;9.182;2024-02-26T09:19:15;153608.78;;;6.14;100.00
38852;BME280;24605;50.092;9.182;2024-02-26T09:21:42;153649.09;;;6.30;100.00
38852;BME280;24605;50.092;9.182;2024-02-26T09:24:09;153497.03;;;5.70;100.00
38852;BME280;24605;50.092;9.182;2024-02-26T09:26:36;153646.50;;;6.29;100.00
38852;BME280;24605;50.092;9.182;2024-02-26T09:29:02;153625.69;;;6.21;100.00
38852;BME280;24605;50.092;9.182;2024-02-26T09:31:31;153642.59;;;6.27;100.00
38852;BME280;24605;50.092;9.182;2024-02-26T09:33:59;153733.59;;;6.64;100.00
38852;BME280;24605;50.092;9.182;2024-02-26T09:36:26;153733.59;;;6.64;100.00
38852;BME280;24605;50.092;9.182;2024-02-26T09:38:52;153793.34;;;6.87;100.00
38852;BME280;24605;50.092;9.182;2024-02-26T09:41:19;153838.84;;;7.05;100.00
38852;BME280;24605;50.092;9.182;2024-02-26T09:43:48;153879.16;;;7.21;100.00
38852;BME280;24605;50.092;9.182;2024-02-26T09:46:17;153997.50;;;7.68;100.00
38852;BME280;24605;50.092;9.182;2024-02-26T09:48:47;153871.34;;;7.18;100.00
38852;BME280;24605;50.092;9.182;2024-02-26T09:51:14;153885.66;;;7.24;100.00
38852;BME280;24605;50.092;9.182;2024-02-26T09:53:43;153873.94;;;7.19;100.00
38852;BME280;24605;50.092;9.182;2024-02-26T09:56:11;153992.34;;;7.66;100.00
38852;BME280;24605;50.092;9.182;2024-02-26T09:58:38;153853.16;;;7.11;100.00
38852;BME280;24605;50.092;9.182;2024-02-26T10:01:10;153913.00;;;7.35;100.00
38852;BME280;24605;50.092;9.182;2024-02-26T10:03:39;154018.31;;;7.77;100.00
38852;BME280;24605;50.092;9.182;2024-02-26T10:06:08;153958.50;;;7.53;100.00
38852;BME280;24605;50.092;9.182;2024-02-26T10:08:35;153993.63;;;7.67;100.00
38852;BME280;24605;50.092;9.182;2024-02-26T10:11:02;154000.13;;;7.69;100.00
38852;BME280;24605;50.092;9.182;2024-02-26T10:13:29;153972.81;;;7.59;100.00
38852;BME280;24605;50.092;9.182;2024-02-26T10:15:55;154043.06;;;7.87;100.00
38852;BME280;24605;50.092;9.182;2024-02-26T10:18:22;153893.47;;;7.27;100.00
38852;BME280;24605;50.092;9.182;2024-02-26T10:20:59;154057.38;;;7.92;100.00
38852;BME280;24605;50.092;9.182;2024-02-26T10:23:27;154035.25;;;7.83;100.00
38852;BME280;24605;50.092;9.182;2024-02-26T10:25:54;154117.22;;;8.16;100.00
38852;BME280;24605;50.092;9.182;2024-02-26T10:28:21;154125.03;;;8.19;100.00
38852;BME280;24605;50.092;9.182;2024-02-26T10:30:48;154239.56;;;8.65;100.00
38852;BME280;24605;50.092;9.182;2024-02-26T10:33:15;154138.03;;;8.24;100.00
38852;BME280;24605;50.092;9.182;2024-02-26T10:35:45;154161.47;;;8.34;100.00
38852;BME280;24605;50.092;9.182;2024-02-26T10:38:12;154195.31;;;8.47;100.00
38852;BME280;24605;50.092;9.182;2024-02-26T10:40:40;154126.31;;;8.20;100.00
38852;BME280;24605;50.092;9.182;2024-02-26T10:43:06;154044.34;;;7.87;100.00
38852;BME280;24605;50.092;9.182;2024-02-26T10:45:33;154136.75;;;8.24;100.00
38852;BME280;24605;50.092;9.182;2024-02-26T10:48:00;154011.81;;;7.74;100.00
38852;BME280;24605;50.092;9.182;2024-02-26T10:50:26;154119.81;;;8.17;100.00
38852;BME280;24605;50.092;9.182;2024-02-26T10:52:55;154201.88;;;8.50;100.00
38852;BME280;24605;50.092;9.182;2024-02-26T10:55:22;154050.84;;;7.90;100.00
38852;BME280;24605;50.092;9.182;2024-02-26T10:57:52;154072.97;;;7.98;100.00
38852;BME280;24605;50.092;9.182;2024-02-26T11:00:19;154069.09;;;7.97;100.00
38852;BME280;24605;50.092;9.182;2024-02-26T11:02:45;154175.78;;;8.39;100.00
38852;BME280;24605;50.092;9.182;2024-02-26T11:05:13;154324.22;;;8.98;100.00
38852;BME280;24605;50.092;9.182;2024-02-26T11:07:41;154428.38;;;9.39;100.00
38852;BME280;24605;50.092;9.182;2024-02-26T11:10:09;154463.53;;;9.53;100.00
38852;BME280;24605;50.092;9.182;2024-02-26T11:12:39;154388.03;;;9.23;100.00
38852;BME280;24605;50.092;9.182;2024-02-26T11:15:08;154408.88;;;9.32;100.00
38852;BME280;24605;50.092;9.182;2024-02-26T11:17:35;154309.88;;;8.92;100.00
38852;BME280;24605;50.092;9.182;2024-02-26T11:20:04;154377.59;;;9.19;100.00
38852;BME280;24605;50.092;9.182;2024-02-26T11:22:31;154356.78;;;9.11;100.00
38852;BME280;24605;50.092;9.182;2024-02-26T11:24:58;154274.72;;;8.78;100.00
38852;BME280;24605;50.092;9.182;2024-02-26T11:27:29;154359.38;;;9.12;100.00
38852;BME280;24605;50.092;9.182;2024-02-26T11:29:59;154493.50;;;9.65;100.00
38852;BME280;24605;50.092;9.182;2024-02-26T11:32:28;154579.53;;;9.99;100.00
38852;BME280;24605;50.092;9.182;2024-02-26T11:34:57;154360.66;;;9.13;100.00
38852;BME280;24605;50.092;9.182;2024-02-26T11:37:24;154386.72;;;9.23;100.00
38852;BME280;24605;50.092;9.182;2024-02-26T11:39:51;154377.59;;;9.19;100.00
38852;BME280;24605;50.092;9.182;2024-02-26T11:42:23;154429.72;;;9.40;100.00
38852;BME280;24605;50.092;9.182;2024-02-26T11:44:50;154454.44;;;9.50;100.00
38852;BME280;24605;50.092;9.182;2024-02-26T11:47:18;154300.78;;;8.89;100.00
38852;BME280;24605;50.092;9.182;2024-02-26T11:49:46;154304.66;;;8.90;100.00
38852;BME280;24605;50.092;9.182;2024-02-26T11:52:14;154377.59;;;9.19;100.00
38852;BME280;24605;50.092;9.182;2024-02-26T11:54:45;154503.94;;;9.69;100.00
38852;BME280;24605;50.092;9.182;2024-02-26T11:57:22;154487.00;;;9.63;100.00
38852;BME280;24605;50.092;9.182;2024-02-26T11:59:48;154570.41;;;9.96;100.00
38852;BME280;24605;50.092;9.182;2024-02-26T12:02:45;154471.38;;;9.56;100.00
38852;BME280;24605;50.092;9.182;2024-02-26T12:05:15;154290.38;;;8.85;100.00
38852;BME280;24605;50.092;9.182;2024-02-26T12:07:44;154642.06;;;10.24;100.00
38852;BME280;24605;50.092;9.182;2024-02-26T12:10:17;154764.63;;;10.73;100.00
38852;BME280;24605;50.092;9.182;2024-02-26T12:12:47;154927.59;;;11.37;98.94
38852;BME280;24605;50.092;9.182;2024-02-26T12:15:15;154918.47;;;11.34;99.18
38852;BME280;24605;50.092;9.182;2024-02-26T12:17:48;154763.34;;;10.72;100.00
38852;BME280;24605;50.092;9.182;2024-02-26T12:20:17;154715.13;;;10.53;100.00
38852;BME280;24605;50.092;9.182;2024-02-26T12:22:45;154588.66;;;10.03;100.00
38852;BME280;24605;50.092;9.182;2024-02-26T12:25:13;154735.97;;;10.61;100.00
38852;BME280;24605;50.092;9.182;2024-02-26T12:27:39;154835.03;;;11.01;99.94
38852;BME280;24605;50.092;9.182;2024-02-26T12:30:07;154867.63;;;11.13;96.47
38852;BME280;24605;50.092;9.182;2024-02-26T12:32:34;154966.75;;;11.53;95.44
38852;BME280;24605;50.092;9.182;2024-02-26T12:35:01;155037.22;;;11.81;93.33
38852;BME280;24605;50.092;9.182;2024-02-26T12:37:29;155097.28;;;12.04;93.96
38852;BME280;24605;50.092;9.182;2024-02-26T12:39:55;155150.78;;;12.26;91.82
38852;BME280;24605;50.092;9.182;2024-02-26T12:42:22;155085.53;;;12.00;93.80
38852;BME280;24605;50.092;9.182;2024-02-26T12:44:49;155003.28;;;11.67;92.21
38852;BME280;24605;50.092;9.182;2024-02-26T12:47:17;154865.00;;;11.12;94.98
38852;BME280;24605;50.092;9.182;2024-02-26T12:49:46;154898.94;;;11.26;94.11
38852;BME280;24605;50.092;9.182;2024-02-26T12:52:13;154840.25;;;11.03;95.79
38852;BME280;24605;50.092;9.182;2024-02-26T12:54:41;154805.03;;;10.89;96.69